Time;durP1;ratioP1;P1;durP2;ratioP2;P2;SDS_P1;SDS_P2;PMS_P1;PMS_P2;Temp;Humidity;BMP_temperature;BMP_pressure;BME280_temperature;BME280_humidity;BME280_pressure;Samples;Min_cycle;Max_cycle;Signal;HPM_P1;HPM_P2
2021/12/07 00:00:29;;;;;;;7.75;2.00;;;;;;;-0.38;97.00;98200.34;4916102;29;20032;-65
2021/12/07 00:02:55;;;;;;;8.20;1.92;;;;;;;-0.34;96.35;98202.09;4915805;29;20114;-66
2021/12/07 00:05:21;;;;;;;4.03;2.95;;;;;;;-0.20;96.43;98198.88;4915916;29;20099;-65
2021/12/07 00:07:46;;;;;;;1.63;1.52;;;;;;;-0.26;96.48;98177.59;4905601;29;20084;-66
2021/12/07 00:10:13;;;;;;;1.48;1.48;;;;;;;-0.38;96.34;98179.13;4912875;29;20565;-65
2021/12/07 00:12:42;;;;;;;1.20;1.20;;;;;;;-0.29;97.30;98171.59;4916056;29;20446;-65
2021/12/07 00:15:09;;;;;;;1.67;1.58;;;;;;;-0.31;96.56;98163.94;4915983;29;20450;-66
2021/12/07 00:17:35;;;;;;;1.23;1.23;;;;;;;-0.26;95.87;98177.59;4915497;29;20038;-65
2021/12/07 00:20:03;;;;;;;0.90;0.90;;;;;;;-0.23;96.04;98170.84;4915788;29;20024;-66
2021/12/07 00:22:29;;;;;;;2.42;1.95;;;;;;;-0.27;96.44;98158.06;4915668;29;20032;-65
2021/12/07 00:24:54;;;;;;;1.50;1.45;;;;;;;-0.16;95.47;98165.00;4915711;29;20032;-66
2021/12/07 00:27:19;;;;;;;3.95;3.58;;;;;;;-0.12;94.51;98159.13;4915491;29;20031;-65
2021/12/07 00:29:45;;;;;;;2.45;2.03;;;;;;;0.02;95.08;98150.00;4915484;29;20048;-66
2021/12/07 00:32:26;;;;;;;2.20;2.03;;;;;;;0.05;94.34;98149.16;4915706;29;20028;-66
2021/12/07 00:35:37;;;;;;;1.58;1.50;;;;;;;0.09;94.47;98149.22;4915630;29;20079;-66
2021/12/07 00:37:39;;;;;;;7.55;1.52;;;;;;;-0.09;94.13;98147.31;4902692;29;20533;-65
2021/12/07 00:40:08;;;;;;;0.90;0.90;;;;;;;0.14;93.90;98150.13;4911313;29;20035;-66
2021/12/07 00:42:33;;;;;;;1.52;1.42;;;;;;;0.02;94.15;98150.00;4915733;29;20099;-66
2021/12/07 00:45:00;;;;;;;1.48;1.40;;;;;;;0.21;94.98;98164.69;4915566;29;20040;-66
2021/12/07 00:47:25;;;;;;;1.60;1.55;;;;;;;0.18;94.10;98167.19;4915310;29;20035;-66
2021/12/07 00:49:51;;;;;;;14.98;2.50;;;;;;;0.04;94.41;98163.59;4915477;29;20032;-66
2021/12/07 00:52:16;;;;;;;2.80;2.65;;;;;;;0.01;95.91;98150.84;4915465;29;20517;-66
2021/12/07 00:54:42;;;;;;;1.00;1.00;;;;;;;0.05;96.61;98162.78;4915406;29;20050;-66
2021/12/07 00:57:07;;;;;;;1.58;1.50;;;;;;;-0.08;96.54;98153.25;4915358;29;20537;-65
2021/12/07 00:59:32;;;;;;;1.60;1.60;;;;;;;-0.12;96.95;98166.78;4915377;29;20529;-66
2021/12/07 05:24:10;;;;;;;0.70;0.70;;;;;;;1.88;100.00;98336.56;4918779;29;20111;-69
2021/12/07 05:37:49;;;;;;;0.80;0.80;;;;;;;1.56;100.00;98352.44;4907461;29;20135;-66
2021/12/07 05:40:27;;;;;;;0.65;0.65;;;;;;;1.50;100.00;98352.41;4915339;29;20071;-66
2021/12/07 05:42:53;;;;;;;0.70;0.70;;;;;;;1.61;100.00;98350.81;4890520;29;20036;-66
2021/12/07 05:45:23;;;;;;;0.80;0.80;;;;;;;1.52;100.00;98360.91;4918298;29;20036;-66
2021/12/07 05:47:49;;;;;;;0.60;0.60;;;;;;;1.45;100.00;98354.00;4917860;29;20016;-66
2021/12/07 05:50:18;;;;;;;0.70;0.70;;;;;;;1.46;100.00;98350.63;4918325;29;20136;-66
2021/12/07 05:52:44;;;;;;;1.38;1.38;;;;;;;1.44;100.00;98353.16;4918398;29;20070;-66
2021/12/07 05:55:09;;;;;;;0.80;0.80;;;;;;;1.49;100.00;98351.50;4918227;29;20111;-65
2021/12/07 05:57:36;;;;;;;1.25;1.10;;;;;;;1.56;100.00;98357.56;4917932;29;20172;-66
2021/12/07 06:00:04;;;;;;;1.00;1.00;;;;;;;1.56;100.00;98361.81;4918342;29;20434;-66
2021/12/07 06:02:29;;;;;;;0.80;0.80;;;;;;;1.60;100.00;98361.84;4918158;29;20038;-66
2021/12/07 06:04:55;;;;;;;1.13;1.02;;;;;;;1.59;100.00;98369.47;4918188;29;20028;-66
2021/12/07 06:07:20;;;;;;;1.58;1.40;;;;;;;1.60;100.00;98372.06;4910960;29;20031;-66
2021/12/07 06:09:46;;;;;;;1.25;1.20;;;;;;;1.69;100.00;98378.94;4910767;29;20059;-66
2021/12/07 06:12:11;;;;;;;0.75;0.75;;;;;;;1.80;100.00;98388.47;4917855;29;20047;-66
2021/12/07 06:14:42;;;;;;;0.55;0.55;;;;;;;1.82;100.00;98391.00;4917934;29;20066;-66
2021/12/07 06:17:08;;;;;;;0.93;0.93;;;;;;;1.72;100.00;98389.22;4917505;29;20145;-66
2021/12/07 06:19:33;;;;;;;0.60;0.60;;;;;;;1.68;100.00;98383.19;4917934;29;20551;-66
2021/12/07 06:21:58;;;;;;;0.68;0.68;;;;;;;1.66;100.00;98395.13;4917760;29;20470;-66
2021/12/07 06:24:24;;;;;;;2.22;1.58;;;;;;;1.68;100.00;98398.53;4917709;29;20523;-66
2021/12/07 06:26:49;;;;;;;1.75;1.42;;;;;;;1.77;100.00;98398.63;4917324;29;20032;-66
2021/12/07 06:29:15;;;;;;;1.80;1.70;;;;;;;1.77;100.00;98401.19;4917474;29;20020;-66
2021/12/07 06:31:41;;;;;;;0.80;0.80;;;;;;;1.84;100.00;98402.13;4917661;29;20036;-66
2021/12/07 06:34:06;;;;;;;1.15;1.10;;;;;;;1.96;100.00;98397.13;4917532;29;20445;-66
2021/12/07 06:36:31;;;;;;;1.73;1.63;;;;;;;1.99;100.00;98409.09;4911250;29;20033;-66
2021/12/07 06:38:57;;;;;;;1.50;1.20;;;;;;;1.97;100.00;98410.75;4909468;29;20020;-66
2021/12/07 06:41:22;;;;;;;0.93;0.93;;;;;;;2.00;100.00;98415.91;4917386;29;20032;-66
2021/12/07 06:43:47;;;;;;;3.25;2.97;;;;;;;2.00;100.00;98411.66;4917290;29;20111;-66
2021/12/07 06:46:13;;;;;;;2.25;1.83;;;;;;;2.04;100.00;98413.41;4917488;29;20063;-66
2021/12/07 06:48:38;;;;;;;1.40;1.38;;;;;;;2.10;100.00;98417.72;4917231;29;20038;-66
2021/12/07 06:51:04;;;;;;;0.77;0.77;;;;;;;2.05;100.00;98416.81;4917191;29;20036;-66
2021/12/07 06:53:35;;;;;;;0.90;0.90;;;;;;;1.99;100.00;98421.88;4917120;29;20064;-66
2021/12/07 06:56:04;;;;;;;1.95;1.35;;;;;;;2.18;100.00;98421.19;4917340;29;20032;-66
2021/12/07 06:58:30;;;;;;;0.70;0.70;;;;;;;2.12;100.00;98423.66;4916285;29;20020;-66
2021/12/07 07:00:55;;;;;;;1.10;1.08;;;;;;;2.09;100.00;98421.09;4916990;29;20084;-66
2021/12/07 07:03:20;;;;;;;0.52;0.52;;;;;;;2.27;100.00;98426.41;4916934;29;20036;-66
2021/12/07 07:05:46;;;;;;;0.70;0.70;;;;;;;2.30;100.00;98431.53;4914798;29;20027;-66
2021/12/07 07:08:11;;;;;;;5.30;1.15;;;;;;;2.34;100.00;98429.00;4905680;29;20433;-66
2021/12/07 07:10:37;;;;;;;0.70;0.70;;;;;;;2.48;100.00;98437.66;4916413;29;20385;-66
2021/12/07 07:13:03;;;;;;;0.65;0.65;;;;;;;2.46;100.00;98442.72;4917028;29;20127;-66
2021/12/07 07:15:28;;;;;;;0.82;0.82;;;;;;;2.43;100.00;98441.88;4916556;29;20453;-66
2021/12/07 07:17:54;;;;;;;0.60;0.60;;;;;;;2.68;100.00;98438.66;4916760;29;20051;-66
2021/12/07 07:20:20;;;;;;;0.95;0.95;;;;;;;2.35;100.00;98440.94;4916667;29;20039;-66
2021/12/07 07:22:45;;;;;;;1.48;1.40;;;;;;;2.41;100.00;98448.66;4916655;29;20083;-66
2021/12/07 07:25:11;;;;;;;0.60;0.60;;;;;;;2.61;100.00;98452.25;4916535;29;20043;-66
2021/12/07 07:27:37;;;;;;;0.60;0.60;;;;;;;2.79;98.69;98462.63;4916393;29;20028;-66
2021/12/07 07:30:05;;;;;;;0.63;0.63;;;;;;;2.70;98.92;98467.66;4916487;29;20023;-66
2021/12/07 07:32:31;;;;;;;0.60;0.60;;;;;;;2.66;99.23;98468.50;4916551;29;20028;-66
2021/12/07 07:34:56;;;;;;;0.70;0.70;;;;;;;2.57;98.92;98469.28;4916501;29;20047;-66
2021/12/07 07:37:21;;;;;;;0.60;0.60;;;;;;;2.44;98.86;98484.50;4909267;29;20118;-66
2021/12/07 07:39:47;;;;;;;1.40;1.30;;;;;;;2.55;99.18;98485.44;4909461;29;20107;-66
2021/12/07 07:42:12;;;;;;;0.77;0.77;;;;;;;2.49;98.81;98475.16;4916333;29;20032;-65
2021/12/07 07:44:37;;;;;;;0.50;0.50;;;;;;;2.49;99.02;98465.78;4916340;29;20074;-66
2021/12/07 07:47:04;;;;;;;0.65;0.65;;;;;;;2.40;100.00;98472.50;4916028;29;20038;-66
2021/12/07 07:49:29;;;;;;;0.80;0.80;;;;;;;2.44;99.26;98469.16;4916202;29;20035;-66
2021/12/07 07:51:54;;;;;;;0.60;0.60;;;;;;;2.51;99.80;98478.56;4916103;29;20040;-65
2021/12/07 07:54:20;;;;;;;0.73;0.73;;;;;;;2.39;100.00;98481.03;4916192;29;20032;-66
2021/12/07 07:56:45;;;;;;;0.73;0.73;;;;;;;2.40;100.00;98481.03;4915989;29;20036;-66
2021/12/07 07:59:11;;;;;;;2.75;1.30;;;;;;;2.45;100.00;98481.09;4916315;29;20523;-66
2021/12/07 08:01:36;;;;;;;0.63;0.63;;;;;;;2.39;100.00;98493.81;4916029;29;20060;-66
2021/12/07 08:04:04;;;;;;;0.60;0.60;;;;;;;2.23;100.00;98503.03;4916113;29;20059;-66
2021/12/07 08:06:30;;;;;;;0.70;0.70;;;;;;;2.21;100.00;98495.31;4909658;29;20024;-66
2021/12/07 08:08:57;;;;;;;0.60;0.60;;;;;;;2.29;100.00;98498.81;4908016;29;20466;-66
2021/12/07 08:11:23;;;;;;;3.50;1.23;;;;;;;2.48;100.00;98497.31;4915624;29;20073;-66
2021/12/07 08:13:48;;;;;;;1.00;1.00;;;;;;;2.45;100.00;98499.84;4916019;29;20038;-66
2021/12/07 08:16:16;;;;;;;0.60;0.60;;;;;;;2.48;100.00;98499.88;4915537;29;20035;-66
2021/12/07 08:18:46;;;;;;;0.88;0.88;;;;;;;2.66;99.45;98498.31;4915815;29;20498;-66
2021/12/07 08:21:13;;;;;;;1.45;0.77;;;;;;;2.59;97.78;98499.97;4915784;29;20035;-66
2021/12/07 08:23:39;;;;;;;0.70;0.70;;;;;;;2.60;99.69;98506.78;4915739;29;20036;-66
2021/12/07 08:26:05;;;;;;;0.60;0.60;;;;;;;2.93;98.29;98510.50;4915617;29;20028;-66
2021/12/07 08:28:31;;;;;;;0.60;0.60;;;;;;;2.98;96.23;98508.81;4915666;29;20079;-66
2021/12/07 08:30:57;;;;;;;1.02;1.00;;;;;;;2.78;94.87;98496.72;4915750;29;20020;-66
2021/12/07 08:33:23;;;;;;;0.60;0.60;;;;;;;2.94;95.56;98504.53;4915641;29;20486;-66
2021/12/07 08:35:48;;;;;;;0.50;0.50;;;;;;;2.74;95.56;98505.22;4912977;29;20032;-66
2021/12/07 08:38:14;;;;;;;0.60;0.60;;;;;;;2.98;95.16;98513.94;4904672;29;20032;-66
2021/12/07 08:40:39;;;;;;;0.68;0.68;;;;;;;3.13;93.36;98516.63;4915434;29;20075;-66
2021/12/07 08:43:12;;;;;;;1.00;0.75;;;;;;;3.03;93.84;98512.28;4915742;29;20127;-66
2021/12/07 08:45:41;;;;;;;0.70;0.70;;;;;;;3.02;93.53;98513.13;4915671;29;20024;-66
2021/12/07 08:48:06;;;;;;;0.73;0.73;;;;;;;3.02;97.73;98515.69;4915455;29;20026;-66
2021/12/07 08:50:33;;;;;;;1.67;1.58;;;;;;;3.10;96.07;98519.16;4915675;29;20482;-66
2021/12/07 08:53:03;;;;;;;0.95;0.95;;;;;;;2.65;97.92;98522.19;4915711;29;20032;-66
2021/12/07 09:00:59;;;;;;;1.40;1.33;;;;;;;2.96;98.23;98531.00;4915831;29;20062;-66
2021/12/07 09:03:25;;;;;;;3.08;1.50;;;;;;;2.99;97.69;98534.41;4915398;29;20028;-66
2021/12/07 09:05:50;;;;;;;1.25;1.15;;;;;;;2.93;97.76;98525.84;4912632;29;20039;-66
2021/12/07 09:08:16;;;;;;;1.02;1.00;;;;;;;3.06;94.89;98527.66;4904403;29;20096;-66
2021/12/07 09:10:41;;;;;;;0.82;0.70;;;;;;;3.39;96.79;98526.19;4896344;29;20051;-65
2021/12/07 09:13:08;;;;;;;1.50;1.40;;;;;;;3.40;95.33;98518.50;4896474;29;20123;-65
2021/12/07 09:15:33;;;;;;;4.00;2.40;;;;;;;3.04;95.83;98534.44;4895114;29;20040;-66
2021/12/07 09:17:59;;;;;;;3.63;3.30;;;;;;;3.38;94.28;98515.06;4896500;29;20406;-65
2021/12/07 09:20:24;;;;;;;2.97;2.78;;;;;;;3.32;96.13;98521.00;4896526;29;20072;-65
2021/12/07 09:22:49;;;;;;;4.85;3.63;;;;;;;3.36;96.03;98521.91;4898274;29;20052;-65
2021/12/07 09:25:15;;;;;;;6.93;5.38;;;;;;;3.49;96.46;98525.41;4899845;29;20174;-65
2021/12/07 09:27:41;;;;;;;2.92;1.45;;;;;;;3.50;94.47;98533.09;4899769;29;20067;-65
2021/12/07 09:30:09;;;;;;;2.05;1.85;;;;;;;3.73;94.70;98538.34;4899702;29;20040;-65
2021/12/07 09:32:34;;;;;;;22.95;1.35;;;;;;;3.75;94.99;98535.78;4899716;29;20036;-65
2021/12/07 09:35:02;;;;;;;1.83;1.35;;;;;;;3.57;94.59;98541.66;4899838;29;20063;-65
2021/12/07 09:37:27;;;;;;;0.80;0.80;;;;;;;3.51;94.93;98541.63;4907115;29;20032;-65
2021/12/07 09:39:53;;;;;;;0.70;0.70;;;;;;;3.78;95.33;98536.66;4912104;29;20032;-65
2021/12/07 09:42:19;;;;;;;1.02;1.00;;;;;;;3.95;92.06;98533.31;4918415;29;20053;-65
2021/12/07 09:44:45;;;;;;;0.60;0.60;;;;;;;4.12;90.62;98519.72;4918659;29;20118;-65
2021/12/07 09:47:10;;;;;;;0.60;0.60;;;;;;;4.26;91.33;98530.03;4918235;29;20024;-65
2021/12/07 09:49:35;;;;;;;0.88;0.88;;;;;;;4.53;89.40;98525.81;4916956;29;20032;-65
2021/12/07 09:52:01;;;;;;;0.98;0.98;;;;;;;4.54;88.23;98524.94;4910333;29;20553;-66
2021/12/07 09:54:26;;;;;;;2.30;1.27;;;;;;;4.51;87.26;98524.97;4918300;29;20409;-67
2021/12/07 09:56:52;;;;;;;0.50;0.50;;;;;;;4.73;88.88;98520.72;4905625;29;20016;-67
2021/12/07 09:59:17;;;;;;;0.68;0.68;;;;;;;4.78;86.75;98524.13;4902411;29;20124;-65
2021/12/07 10:01:42;;;;;;;1.50;1.33;;;;;;;4.70;86.96;98526.72;4898428;29;20021;-66
2021/12/07 10:04:08;;;;;;;6.43;1.63;;;;;;;4.81;85.34;98519.88;4906944;29;20395;-67
2021/12/07 10:06:34;;;;;;;0.52;0.52;;;;;;;4.73;85.07;98531.81;4898405;29;20028;-65
2021/12/07 10:09:01;;;;;;;1.15;1.10;;;;;;;4.93;85.18;98530.97;4912935;29;20485;-65
2021/12/07 10:11:27;;;;;;;0.50;0.50;;;;;;;5.24;84.52;98540.41;4900284;29;20470;-65
2021/12/07 10:13:53;;;;;;;1.80;1.70;;;;;;;5.76;81.18;98514.63;4898789;29;20028;-65
2021/12/07 10:16:20;;;;;;;1.17;0.90;;;;;;;6.01;79.31;98515.44;4914487;29;20115;-66
2021/12/07 10:18:46;;;;;;;2.53;2.35;;;;;;;5.99;79.52;98511.13;4903609;29;20028;-65
2021/12/07 10:21:14;;;;;;;0.50;0.50;;;;;;;5.95;77.30;98519.72;4917791;29;20024;-66
2021/12/07 10:23:46;;;;;;;0.50;0.50;;;;;;;6.07;78.47;98519.69;4917780;29;20032;-66
2021/12/07 10:26:14;;;;;;;1.98;0.85;;;;;;;6.19;73.86;98519.66;4917458;29;20485;-65
2021/12/07 10:28:42;;;;;;;0.60;0.60;;;;;;;5.85;75.18;98519.75;4917738;29;20082;-65
2021/12/07 10:31:10;;;;;;;0.60;0.60;;;;;;;5.33;74.86;98524.16;4917690;29;20032;-65
2021/12/07 10:33:41;;;;;;;3.50;1.25;;;;;;;5.06;75.89;98525.84;4917501;29;20039;-65
2021/12/07 10:36:10;;;;;;;5.68;1.83;;;;;;;4.93;75.92;98523.28;4911439;29;20040;-65
2021/12/07 10:38:37;;;;;;;1.42;1.42;;;;;;;5.00;76.48;98517.31;4908651;29;20054;-65
2021/12/07 10:41:09;;;;;;;0.60;0.60;;;;;;;4.94;77.07;98507.91;4917400;29;20496;-65
2021/12/07 10:43:53;;;;;;;0.70;0.70;;;;;;;5.00;78.64;98515.59;4917236;29;20040;-65
2021/12/07 10:46:33;;;;;;;0.65;0.65;;;;;;;4.77;76.17;98494.19;4917308;29;20028;-65
2021/12/07 10:49:19;;;;;;;0.73;0.73;;;;;;;4.42;73.93;98504.41;4906196;29;20107;-65
2021/12/07 10:52:05;;;;;;;0.50;0.50;;;;;;;4.28;76.26;98509.50;4917489;29;20409;-65
2021/12/07 10:54:37;;;;;;;0.80;0.80;;;;;;;4.22;75.46;98505.22;4906549;29;20396;-65
2021/12/07 10:57:05;;;;;;;3.90;0.93;;;;;;;4.08;75.97;98499.19;4917118;29;20060;-65
2021/12/07 10:59:32;;;;;;;0.60;0.60;;;;;;;4.13;76.03;98502.63;4907730;29;20498;-65
2021/12/07 11:01:58;;;;;;;1.48;1.30;;;;;;;4.00;76.13;98496.59;4903978;29;20025;-65
2021/12/07 11:04:23;;;;;;;1.20;1.10;;;;;;;4.20;75.55;98486.41;4898165;29;20036;-65
2021/12/07 11:07:12;;;;;;;1.58;1.10;;;;;;;4.94;74.35;98478.81;4902220;29;20385;-65
2021/12/07 11:09:50;;;;;;;0.50;0.50;;;;;;;7.29;64.63;98457.03;4909005;29;20039;-65
2021/12/07 11:12:19;;;;;;;0.77;0.77;;;;;;;9.25;55.83;98438.81;4917168;29;20043;-65
2021/12/07 11:14:53;;;;;;;0.47;0.47;;;;;;;7.29;60.80;98446.72;4916815;29;20420;-65
2021/12/07 11:17:25;;;;;;;0.50;0.50;;;;;;;6.34;64.63;98452.66;4916535;29;20036;-65
2021/12/07 11:19:52;;;;;;;0.60;0.60;;;;;;;5.72;66.34;98450.38;4916735;29;20108;-65
2021/12/07 11:22:23;;;;;;;0.57;0.57;;;;;;;5.22;67.16;98457.38;4916733;29;20031;-65
2021/12/07 11:24:51;;;;;;;1.48;1.35;;;;;;;5.01;68.14;98455.69;4916777;29;20066;-65
2021/12/07 11:30:06;;;;;;;0.50;0.50;;;;;;;8.70;58.39;98427.69;4910551;29;20463;-70
2021/12/07 11:32:32;;;;;;;0.50;0.50;;;;;;;9.51;53.59;98428.81;4915382;29;20087;-70
2021/12/07 11:35:20;;;;;;;6.50;3.90;;;;;;;8.22;55.30;98427.53;4916330;29;20036;-70
